createdAt,value
2023-03-04T00:00:26.544Z,99829.38
2023-03-04T00:03:13.392Z,99825.25
2023-03-04T00:06:00.571Z,99832.22
2023-03-04T00:08:47.533Z,99830.56
2023-03-04T00:11:34.773Z,99841.13
2023-03-04T00:14:21.803Z,99847.38
2023-03-04T00:17:08.681Z,99847.50
2023-03-04T00:19:55.830Z,99829.41
2023-03-04T00:22:42.777Z,99845.25
2023-03-04T00:25:29.747Z,99856.53
2023-03-04T00:28:16.708Z,99846.22
2023-03-04T00:31:03.600Z,99849.78
2023-03-04T00:33:50.563Z,99843.81
2023-03-04T00:36:37.718Z,99850.88
2023-03-04T00:39:24.818Z,99843.06
2023-03-04T00:42:11.738Z,99852.66
2023-03-04T00:44:59.073Z,99854.44
2023-03-04T00:47:46.148Z,99865.88
2023-03-04T00:50:33.151Z,99848.63
2023-03-04T00:53:20.405Z,99862.50
2023-03-04T00:56:07.481Z,99837.28
2023-03-04T00:58:54.535Z,99860.06
2023-03-04T01:01:41.634Z,99865.38
2023-03-04T01:04:29.292Z,99862.84
2023-03-04T01:07:16.217Z,99855.97
2023-03-04T01:10:03.062Z,99852.63
2023-03-04T01:12:50.026Z,99856.19
2023-03-04T01:15:37.042Z,99848.72
2023-03-04T01:18:25.820Z,99862.50
2023-03-04T01:21:12.882Z,99866.97
2023-03-04T01:23:59.980Z,99889.75
2023-03-04T01:26:46.889Z,99881.19
2023-03-04T01:29:34.546Z,99864.75
2023-03-04T01:32:23.104Z,99877.78
2023-03-04T01:35:10.050Z,99880.44
2023-03-04T01:37:57.182Z,99877.13
2023-03-04T01:40:44.206Z,99891.91
2023-03-04T01:43:41.002Z,99908.50
2023-03-04T01:46:30.297Z,99902.47
2023-03-04T01:49:18.792Z,99903.34
2023-03-04T01:52:11.793Z,99907.75
2023-03-04T01:54:59.229Z,99923.47
2023-03-04T01:57:46.616Z,99911.38
2023-03-04T02:00:39.771Z,99930.47
2023-03-04T02:03:32.879Z,99933.06
2023-03-04T02:06:20.067Z,99925.34
2023-03-04T02:09:06.919Z,99927.03
2023-03-04T02:11:56.028Z,99934.06
2023-03-04T02:14:43.311Z,99879.97
2023-03-04T02:17:32.512Z,99928.06
2023-03-04T02:20:41.730Z,99929.84
2023-03-04T02:24:17.363Z,99953.38
2023-03-04T02:27:05.333Z,99928.16
2023-03-04T02:29:52.818Z,99948.19
2023-03-04T02:32:39.974Z,99941.31
2023-03-04T02:35:34.280Z,99937.81
2023-03-04T02:38:21.497Z,99946.56
2023-03-04T02:41:11.971Z,99943.06
2023-03-04T02:43:59.337Z,99954.44
2023-03-04T02:46:47.628Z,99960.59
2023-03-04T02:49:35.124Z,99941.66
2023-03-04T02:52:24.133Z,99955.38
2023-03-04T02:55:11.319Z,99968.44
2023-03-04T02:57:58.446Z,99961.44
2023-03-04T03:00:45.866Z,99971.03
2023-03-04T03:03:33.410Z,99936.66
2023-03-04T03:06:20.462Z,99981.53
2023-03-04T03:09:07.419Z,99984.19
2023-03-04T03:11:55.595Z,99995.47
2023-03-04T03:14:43.111Z,99985.06
2023-03-04T03:17:32.280Z,100000.72
2023-03-04T03:20:19.456Z,100007.72
2023-03-04T03:23:08.194Z,99989.56
2023-03-04T03:25:56.025Z,100014.69
2023-03-04T03:28:43.066Z,99997.44
2023-03-04T03:31:30.059Z,100017.28
2023-03-04T03:34:17.383Z,100011.19
2023-03-04T03:37:04.381Z,100026.00
2023-03-04T03:39:51.358Z,100026.88
2023-03-04T03:42:38.291Z,100013.81
2023-03-04T03:45:25.833Z,100032.09
2023-03-04T03:48:16.098Z,100029.47
2023-03-04T03:51:03.056Z,100032.13
2023-03-04T03:53:49.990Z,100027.81
2023-03-04T03:56:36.995Z,100033.91
2023-03-04T03:59:23.985Z,100034.81
2023-03-04T04:02:11.080Z,100040.94
2023-03-04T04:04:58.178Z,100048.75
2023-03-04T04:07:45.312Z,100054.00
2023-03-04T04:10:32.323Z,100050.53
2023-03-04T04:13:19.354Z,100046.22
2023-03-04T04:16:06.386Z,100048.81
2023-03-04T04:18:53.332Z,100053.22
2023-03-04T04:21:40.528Z,100062.78
2023-03-04T04:24:27.562Z,100058.50
2023-03-04T04:27:14.490Z,100057.66
2023-03-04T04:30:01.710Z,100066.38
2023-03-04T04:32:48.735Z,100043.28
2023-03-04T04:35:35.835Z,100076.91
2023-03-04T04:38:22.949Z,100085.66
2023-03-04T04:41:10.013Z,100083.09
2023-03-04T04:43:57.086Z,100073.56
2023-03-04T04:46:44.110Z,100073.63
2023-03-04T04:49:31.294Z,100071.84
2023-03-04T04:52:18.408Z,100040.09
2023-03-04T04:55:05.346Z,100089.34
2023-03-04T04:57:53.749Z,100089.38
2023-03-04T05:00:41.038Z,100088.53
2023-03-04T05:03:28.110Z,100083.56
2023-03-04T05:06:15.066Z,100084.31
2023-03-04T05:09:02.034Z,100098.28
2023-03-04T05:11:48.981Z,100094.00
2023-03-04T05:14:36.192Z,100102.75
2023-03-04T05:17:23.734Z,100122.81
2023-03-04T05:20:10.660Z,100112.44
2023-03-04T05:22:57.836Z,100114.25
2023-03-04T05:25:44.627Z,100103.84
2023-03-04T05:28:35.165Z,100107.41
2023-03-04T05:31:22.861Z,100109.22
2023-03-04T05:34:10.233Z,100103.31
2023-03-04T05:36:57.272Z,100116.31
2023-03-04T05:39:44.312Z,100126.78
2023-03-04T05:42:31.174Z,100119.88
2023-03-04T05:45:18.251Z,100119.06
2023-03-04T05:48:05.181Z,100127.78
2023-03-04T05:50:53.170Z,100121.78
2023-03-04T05:53:40.063Z,100130.50
2023-03-04T05:56:31.766Z,100123.59
2023-03-04T05:59:18.955Z,100118.50
2023-03-04T06:02:06.881Z,100127.16
2023-03-04T06:04:53.993Z,100138.53
2023-03-04T06:07:40.866Z,100132.47
2023-03-04T06:10:29.186Z,100149.94
2023-03-04T06:13:16.222Z,100093.00
2023-03-04T06:16:03.210Z,100144.81
2023-03-04T06:18:50.313Z,100148.28
2023-03-04T06:21:37.413Z,100150.06
2023-03-04T06:24:24.725Z,100146.63
2023-03-04T06:27:11.558Z,100151.84
2023-03-04T06:29:58.518Z,100156.22
2023-03-04T06:32:45.563Z,100148.41
2023-03-04T06:35:33.494Z,100151.94
2023-03-04T06:38:20.381Z,100164.97
2023-03-04T06:41:07.654Z,100155.41
2023-03-04T06:43:54.631Z,100157.22
2023-03-04T06:46:41.726Z,100153.72
2023-03-04T06:49:28.612Z,100158.09
2023-03-04T06:52:15.741Z,100158.09
2023-03-04T06:55:02.675Z,100155.47
2023-03-04T06:57:49.887Z,100163.31
2023-03-04T07:00:37.622Z,100167.66
2023-03-04T07:03:24.929Z,100165.06
2023-03-04T07:06:11.791Z,100172.00
2023-03-04T07:08:58.849Z,100172.88
2023-03-04T07:11:45.693Z,100170.28
2023-03-04T07:14:32.642Z,100168.50
2023-03-04T07:17:19.477Z,100169.38
2023-03-04T07:20:06.625Z,100169.38
2023-03-04T07:22:53.533Z,100153.81
2023-03-04T07:25:40.619Z,100105.59
2023-03-04T07:28:27.478Z,100168.47
2023-03-04T07:31:14.797Z,100169.34
2023-03-04T07:34:01.808Z,100172.81
2023-03-04T07:36:49.132Z,100171.03
2023-03-04T07:39:36.188Z,100178.81
2023-03-04T07:42:23.372Z,100166.69
2023-03-04T07:45:18.142Z,100169.22
2023-03-04T07:48:05.238Z,100174.41
2023-03-04T07:50:52.099Z,100170.91
2023-03-04T07:53:39.215Z,100171.75
2023-03-04T07:56:27.825Z,100172.59
2023-03-04T07:59:15.537Z,100175.16
2023-03-04T08:02:02.468Z,100174.28
2023-03-04T08:04:49.769Z,100180.34
2023-03-04T08:07:36.690Z,100193.34
2023-03-04T08:10:24.318Z,100185.50
2023-03-04T08:13:11.160Z,100188.94
2023-03-04T08:16:02.539Z,100194.13
2023-03-04T08:18:49.748Z,100192.34
2023-03-04T08:21:41.674Z,100191.47
2023-03-04T08:24:28.566Z,100202.72
2023-03-04T08:27:15.712Z,100196.63
2023-03-04T08:30:02.638Z,100186.16
2023-03-04T08:32:49.873Z,100119.72
2023-03-04T08:35:37.075Z,100194.78
2023-03-04T08:38:24.126Z,100192.16
2023-03-04T08:41:15.940Z,100197.34
2023-03-04T08:44:04.122Z,100205.97
2023-03-04T08:46:51.266Z,100205.13
2023-03-04T08:49:38.473Z,100200.75
2023-03-04T08:52:26.472Z,100161.06
2023-03-04T08:55:13.555Z,100192.88
2023-03-04T08:58:00.618Z,100196.34
2023-03-04T09:00:48.111Z,100187.63
2023-03-04T09:03:36.752Z,100188.47
2023-03-04T09:06:25.107Z,100182.41
2023-03-04T09:09:12.028Z,100192.78
2023-03-04T09:11:59.130Z,100197.13
2023-03-04T09:14:46.138Z,100190.13
2023-03-04T09:17:33.204Z,100191.84
2023-03-04T09:20:20.173Z,100169.41
2023-03-04T09:23:07.342Z,100183.09
2023-03-04T09:25:54.296Z,100183.94
2023-03-04T09:28:41.281Z,100174.41
2023-03-04T09:31:33.227Z,100185.59
2023-03-04T09:34:20.542Z,100176.94
2023-03-04T09:37:07.636Z,100187.25
2023-03-04T09:39:54.758Z,100186.31
2023-03-04T09:42:56.673Z,100182.81
2023-03-04T09:46:01.746Z,100171.50
2023-03-04T09:49:00.319Z,100171.47
2023-03-04T09:52:19.120Z,100188.53
2023-03-04T09:55:27.584Z,100186.63
2023-03-04T09:58:23.190Z,100185.63
2023-03-04T10:01:23.640Z,100158.84
2023-03-04T10:04:19.271Z,100182.72
2023-03-04T10:07:07.714Z,100179.91
2023-03-04T10:10:22.784Z,100176.19
2023-03-04T10:13:13.046Z,100183.00
2023-03-04T10:16:02.943Z,100174.09
2023-03-04T10:18:56.890Z,100170.38
2023-03-04T10:21:51.971Z,100171.91
2023-03-04T10:24:41.418Z,100171.75
2023-03-04T10:27:35.965Z,100173.25
2023-03-04T10:30:23.061Z,100167.00
2023-03-04T10:33:09.974Z,100160.69
2023-03-04T10:35:58.419Z,100151.88
2023-03-04T10:38:45.807Z,100153.38
2023-03-04T10:41:40.627Z,100160.13
2023-03-04T10:44:30.293Z,100160.81
2023-03-04T10:47:18.464Z,100148.41
2023-03-04T10:50:14.926Z,100149.09
2023-03-04T10:53:08.684Z,100151.50
2023-03-04T10:56:04.304Z,100149.56
2023-03-04T10:58:51.181Z,100098.47
2023-03-04T11:01:38.321Z,100142.16
2023-03-04T11:04:37.306Z,100098.94
2023-03-04T11:07:34.088Z,100146.94
2023-03-04T11:10:35.026Z,100147.53
2023-03-04T11:13:37.796Z,100097.25
2023-03-04T11:16:43.613Z,100136.53
2023-03-04T11:19:38.246Z,100127.50
2023-03-04T11:22:25.634Z,100122.91
2023-03-04T11:25:19.544Z,100138.31
2023-03-04T11:28:12.443Z,100138.94
2023-03-04T11:31:11.034Z,100136.03
2023-03-04T11:34:16.878Z,100127.78
2023-03-04T11:37:38.314Z,100129.22
2023-03-04T11:40:30.989Z,100126.31
2023-03-04T11:43:27.471Z,100135.63
2023-03-04T11:46:17.080Z,100130.09
2023-03-04T11:49:25.860Z,100137.63
2023-03-04T11:52:24.824Z,100139.09
2023-03-04T11:55:50.424Z,100124.75
2023-03-04T11:58:43.109Z,100120.06
2023-03-04T12:01:52.893Z,100116.31
2023-03-04T12:05:03.688Z,100122.97
2023-03-04T12:08:09.544Z,100121.00
2023-03-04T12:11:36.967Z,100124.28
2023-03-04T12:14:54.741Z,100122.31
2023-03-04T12:18:00.146Z,100117.59
2023-03-04T12:21:10.822Z,100098.53
2023-03-04T12:24:20.391Z,100114.53
2023-03-04T12:27:24.326Z,100116.00
2023-03-04T12:30:11.226Z,100114.03
2023-03-04T12:33:26.828Z,100122.56
2023-03-04T12:36:45.864Z,100111.78
2023-03-04T12:39:51.262Z,100109.78
2023-03-04T12:43:00.422Z,100113.09
2023-03-04T12:46:09.509Z,100105.97
2023-03-04T12:49:02.243Z,100105.84
2023-03-04T12:52:10.505Z,100095.16
2023-03-04T12:55:00.809Z,100093.22
2023-03-04T12:57:48.553Z,100090.47
2023-03-04T13:01:12.798Z,100094.78
2023-03-04T13:04:37.734Z,100089.47
2023-03-04T13:08:02.266Z,100092.91
2023-03-04T13:10:49.978Z,100038.66
2023-03-04T13:14:04.021Z,100089.28
2023-03-04T13:17:02.008Z,100073.72
2023-03-04T13:20:11.592Z,100076.88
2023-03-04T13:22:58.530Z,100075.88
2023-03-04T13:25:56.637Z,100072.31
2023-03-04T13:28:45.303Z,100069.56
2023-03-04T13:31:38.444Z,100036.06
2023-03-04T13:34:25.423Z,100078.16
2023-03-04T13:37:16.590Z,100075.41
2023-03-04T13:40:03.573Z,100076.19
2023-03-04T13:43:02.607Z,100072.56
2023-03-04T13:45:57.092Z,100071.59
2023-03-04T13:48:52.019Z,100067.06
2023-03-04T13:51:43.001Z,100067.88
2023-03-04T13:54:50.578Z,100062.47
2023-03-04T13:57:40.645Z,100064.19
2023-03-04T14:00:32.892Z,100065.00
2023-03-04T14:03:33.767Z,100068.44
2023-03-04T14:06:43.679Z,100063.94
2023-03-04T14:09:36.101Z,100064.81
2023-03-04T14:12:25.277Z,100063.88
2023-03-04T14:15:15.048Z,100077.03
2023-03-04T14:18:07.759Z,100060.41
2023-03-04T14:21:00.069Z,100059.53
2023-03-04T14:23:51.216Z,100078.84
2023-03-04T14:26:38.296Z,100072.75
2023-03-04T14:29:49.714Z,100066.88
2023-03-04T14:32:36.772Z,100071.97
2023-03-04T14:35:27.169Z,100062.47
2023-03-04T14:38:14.013Z,100080.06
2023-03-04T14:41:17.212Z,100069.69
2023-03-04T14:44:26.551Z,100068.84
2023-03-04T14:47:25.594Z,100062.16
2023-03-04T14:50:12.753Z,100058.72
2023-03-04T14:53:02.498Z,100071.00
2023-03-04T14:55:49.383Z,100070.25
2023-03-04T14:58:51.518Z,100073.88
2023-03-04T15:01:49.187Z,100030.06
2023-03-04T15:04:40.109Z,100064.44
2023-03-04T15:07:36.177Z,100053.28
2023-03-04T15:10:27.146Z,100067.25
2023-03-04T15:13:17.003Z,100060.31
2023-03-04T15:16:06.179Z,100064.03
2023-03-04T15:18:53.657Z,100054.56
2023-03-04T15:21:40.505Z,100068.59
2023-03-04T15:24:29.328Z,100055.59
2023-03-04T15:27:16.882Z,100068.75
2023-03-04T15:30:04.386Z,100070.66
2023-03-04T15:32:51.416Z,100070.75
2023-03-04T15:35:40.179Z,100062.19
2023-03-04T15:38:28.727Z,100069.28
2023-03-04T15:41:16.272Z,100073.81
2023-03-04T15:44:03.127Z,100071.22
2023-03-04T15:46:50.006Z,100061.91
2023-03-04T15:49:36.873Z,100075.00
2023-03-04T15:52:25.794Z,100071.69
2023-03-04T15:55:12.641Z,100075.28
2023-03-04T15:57:59.603Z,100077.25
2023-03-04T16:00:47.331Z,100080.00
2023-03-04T16:03:39.789Z,100071.34
2023-03-04T16:06:30.488Z,100079.41
2023-03-04T16:09:18.906Z,100080.44
2023-03-04T16:12:06.386Z,100059.75
2023-03-04T16:14:53.271Z,100082.47
2023-03-04T16:17:40.526Z,100086.16
2023-03-04T16:20:27.744Z,100078.50
2023-03-04T16:23:20.279Z,100044.38
2023-03-04T16:26:09.580Z,100078.88
2023-03-04T16:28:56.560Z,100080.84
2023-03-04T16:31:43.343Z,100080.22
2023-03-04T16:34:30.239Z,100093.53
2023-03-04T16:37:17.051Z,100081.59
2023-03-04T16:40:04.216Z,100086.06
2023-03-04T16:42:51.076Z,100087.22
2023-03-04T16:45:48.073Z,100092.56
2023-03-04T16:48:35.665Z,100090.16
2023-03-04T16:51:34.393Z,100084.22
2023-03-04T16:54:21.331Z,100093.22
2023-03-04T16:57:08.193Z,100083.81
2023-03-04T16:59:55.105Z,100086.63
2023-03-04T17:02:43.276Z,100096.50
2023-03-04T17:05:41.297Z,100084.44
2023-03-04T17:08:28.360Z,100089.88
2023-03-04T17:11:15.198Z,100088.38
2023-03-04T17:14:02.060Z,100092.06
2023-03-04T17:16:48.998Z,100094.88
2023-03-04T17:19:37.369Z,100099.47
2023-03-04T17:22:24.402Z,100089.31
2023-03-04T17:25:11.407Z,100099.06
2023-03-04T17:27:58.512Z,100033.88
2023-03-04T17:30:45.312Z,100085.59
2023-03-04T17:33:32.185Z,100087.34
2023-03-04T17:36:19.119Z,100073.00
2023-03-04T17:39:06.605Z,100070.66
2023-03-04T17:41:53.783Z,100045.94
2023-03-04T17:44:40.572Z,100087.22
2023-03-04T17:47:27.938Z,100087.44
2023-03-04T17:50:14.819Z,100087.63
2023-03-04T17:53:01.779Z,100086.88
2023-03-04T17:55:48.650Z,100094.97
2023-03-04T17:58:16.126Z,100064.97
2023-03-04T18:00:43.173Z,100082.16
2023-03-04T18:03:12.826Z,100085.81
2023-03-04T18:05:40.269Z,100045.47
2023-03-04T18:08:07.679Z,100086.09
2023-03-04T18:10:55.047Z,100081.84
2023-03-04T18:13:41.862Z,100090.72
2023-03-04T18:16:29.760Z,100078.72
2023-03-04T18:19:18.889Z,100092.81
2023-03-04T18:22:05.730Z,100079.88
2023-03-04T18:24:52.788Z,100091.28
2023-03-04T18:27:39.642Z,100092.28
2023-03-04T18:30:31.695Z,100085.41
2023-03-04T18:33:21.873Z,100081.34
2023-03-04T18:36:09.221Z,100089.19
2023-03-04T18:38:56.288Z,100084.06
2023-03-04T18:41:43.171Z,100071.25
2023-03-04T18:44:30.684Z,100082.63
2023-03-04T18:47:18.240Z,100084.47
2023-03-04T18:50:06.899Z,100083.78
2023-03-04T18:52:54.374Z,100085.66
2023-03-04T18:55:42.707Z,100085.75
2023-03-04T18:58:29.912Z,100064.53
